sensor_id;sensor_type;location;lat;lon;timestamp;P1;durP1;ratioP1;P2;durP2;ratioP2
13335;SDS011;6737;51.480;11.962;2023-04-06T00:01:38;10.27;;;7.90;;
13335;SDS011;6737;51.480;11.962;2023-04-06T00:04:04;12.33;;;7.80;;
13335;SDS011;6737;51.480;11.962;2023-04-06T00:06:31;10.27;;;7.80;;
13335;SDS011;6737;51.480;11.962;2023-04-06T00:08:57;11.90;;;8.00;;
13335;SDS011;6737;51.480;11.962;2023-04-06T00:11:24;12.17;;;7.73;;
13335;SDS011;6737;51.480;11.962;2023-04-06T00:13:50;11.03;;;7.73;;
13335;SDS011;6737;51.480;11.962;2023-04-06T00:16:16;12.63;;;8.43;;
13335;SDS011;6737;51.480;11.962;2023-04-06T00:18:42;15.70;;;8.70;;
13335;SDS011;6737;51.480;11.962;2023-04-06T00:21:08;9.83;;;7.70;;
13335;SDS011;6737;51.480;11.962;2023-04-06T00:23:36;12.13;;;8.63;;
13335;SDS011;6737;51.480;11.962;2023-04-06T00:26:02;10.20;;;7.97;;
13335;SDS011;6737;51.480;11.962;2023-04-06T00:28:28;11.33;;;8.17;;
13335;SDS011;6737;51.480;11.962;2023-04-06T00:30:55;12.83;;;7.77;;
13335;SDS011;6737;51.480;11.962;2023-04-06T00:33:21;12.87;;;8.40;;
13335;SDS011;6737;51.480;11.962;2023-04-06T00:35:47;12.17;;;8.77;;
13335;SDS011;6737;51.480;11.962;2023-04-06T00:38:14;12.73;;;8.97;;
13335;SDS011;6737;51.480;11.962;2023-04-06T00:40:40;11.00;;;8.60;;
13335;SDS011;6737;51.480;11.962;2023-04-06T00:43:07;12.37;;;8.77;;
13335;SDS011;6737;51.480;11.962;2023-04-06T00:45:34;10.83;;;8.23;;
13335;SDS011;6737;51.480;11.962;2023-04-06T00:48:00;11.93;;;8.90;;
13335;SDS011;6737;51.480;11.962;2023-04-06T00:50:27;12.53;;;8.80;;
13335;SDS011;6737;51.480;11.962;2023-04-06T00:52:53;12.83;;;9.13;;
13335;SDS011;6737;51.480;11.962;2023-04-06T00:55:20;12.50;;;8.40;;
13335;SDS011;6737;51.480;11.962;2023-04-06T00:57:46;11.67;;;8.43;;
13335;SDS011;6737;51.480;11.962;2023-04-06T01:00:12;12.20;;;8.40;;
13335;SDS011;6737;51.480;11.962;2023-04-06T01:02:39;12.67;;;8.80;;
13335;SDS011;6737;51.480;11.962;2023-04-06T01:05:05;12.47;;;8.37;;
13335;SDS011;6737;51.480;11.962;2023-04-06T01:07:31;12.50;;;8.60;;
13335;SDS011;6737;51.480;11.962;2023-04-06T01:09:57;15.30;;;8.80;;
13335;SDS011;6737;51.480;11.962;2023-04-06T01:12:23;13.17;;;8.77;;
13335;SDS011;6737;51.480;11.962;2023-04-06T01:14:50;14.67;;;9.13;;
13335;SDS011;6737;51.480;11.962;2023-04-06T01:17:16;11.87;;;8.13;;
13335;SDS011;6737;51.480;11.962;2023-04-06T01:19:41;12.10;;;8.40;;
13335;SDS011;6737;51.480;11.962;2023-04-06T01:22:07;12.27;;;8.57;;
13335;SDS011;6737;51.480;11.962;2023-04-06T01:24:33;12.47;;;8.80;;
13335;SDS011;6737;51.480;11.962;2023-04-06T01:26:59;13.87;;;8.67;;
13335;SDS011;6737;51.480;11.962;2023-04-06T01:29:26;12.83;;;8.73;;
13335;SDS011;6737;51.480;11.962;2023-04-06T01:31:52;12.40;;;8.70;;
13335;SDS011;6737;51.480;11.962;2023-04-06T01:34:18;13.67;;;9.33;;
13335;SDS011;6737;51.480;11.962;2023-04-06T01:36:43;13.27;;;9.07;;
13335;SDS011;6737;51.480;11.962;2023-04-06T01:39:09;16.67;;;9.00;;
13335;SDS011;6737;51.480;11.962;2023-04-06T01:41:35;14.40;;;9.47;;
13335;SDS011;6737;51.480;11.962;2023-04-06T01:44:01;16.07;;;9.10;;
13335;SDS011;6737;51.480;11.962;2023-04-06T01:46:27;14.57;;;9.10;;
13335;SDS011;6737;51.480;11.962;2023-04-06T01:48:53;13.43;;;9.33;;
13335;SDS011;6737;51.480;11.962;2023-04-06T01:51:19;11.70;;;8.97;;
13335;SDS011;6737;51.480;11.962;2023-04-06T01:53:45;11.90;;;8.70;;
13335;SDS011;6737;51.480;11.962;2023-04-06T01:56:11;13.13;;;8.90;;
13335;SDS011;6737;51.480;11.962;2023-04-06T01:58:37;14.20;;;9.37;;
13335;SDS011;6737;51.480;11.962;2023-04-06T02:01:02;12.93;;;9.17;;
13335;SDS011;6737;51.480;11.962;2023-04-06T02:03:28;13.27;;;9.10;;
13335;SDS011;6737;51.480;11.962;2023-04-06T02:05:55;14.70;;;9.63;;
13335;SDS011;6737;51.480;11.962;2023-04-06T02:08:21;14.07;;;9.50;;
13335;SDS011;6737;51.480;11.962;2023-04-06T02:10:47;14.87;;;9.70;;
13335;SDS011;6737;51.480;11.962;2023-04-06T02:13:13;15.43;;;10.10;;
13335;SDS011;6737;51.480;11.962;2023-04-06T02:15:38;18.13;;;11.10;;
13335;SDS011;6737;51.480;11.962;2023-04-06T02:18:04;13.60;;;10.07;;
13335;SDS011;6737;51.480;11.962;2023-04-06T02:20:30;17.53;;;10.27;;
13335;SDS011;6737;51.480;11.962;2023-04-06T02:22:58;15.67;;;10.43;;
13335;SDS011;6737;51.480;11.962;2023-04-06T02:25:25;16.07;;;10.17;;
13335;SDS011;6737;51.480;11.962;2023-04-06T02:27:51;14.03;;;10.00;;
13335;SDS011;6737;51.480;11.962;2023-04-06T02:30:17;15.17;;;10.43;;
13335;SDS011;6737;51.480;11.962;2023-04-06T02:32:43;13.70;;;10.23;;
13335;SDS011;6737;51.480;11.962;2023-04-06T02:35:09;16.73;;;11.00;;
13335;SDS011;6737;51.480;11.962;2023-04-06T02:37:35;15.37;;;11.00;;
13335;SDS011;6737;51.480;11.962;2023-04-06T02:40:00;15.87;;;10.43;;
13335;SDS011;6737;51.480;11.962;2023-04-06T02:42:26;17.30;;;10.90;;
13335;SDS011;6737;51.480;11.962;2023-04-06T02:44:52;19.20;;;10.60;;
13335;SDS011;6737;51.480;11.962;2023-04-06T02:47:18;14.27;;;9.93;;
13335;SDS011;6737;51.480;11.962;2023-04-06T02:49:43;19.70;;;11.33;;
13335;SDS011;6737;51.480;11.962;2023-04-06T02:52:09;14.50;;;10.63;;
13335;SDS011;6737;51.480;11.962;2023-04-06T02:54:35;13.23;;;9.87;;
13335;SDS011;6737;51.480;11.962;2023-04-06T02:57:01;14.53;;;9.57;;
13335;SDS011;6737;51.480;11.962;2023-04-06T02:59:27;13.50;;;9.70;;
13335;SDS011;6737;51.480;11.962;2023-04-06T03:01:53;14.07;;;10.50;;
13335;SDS011;6737;51.480;11.962;2023-04-06T03:04:18;17.20;;;10.83;;
13335;SDS011;6737;51.480;11.962;2023-04-06T03:06:44;18.07;;;10.97;;
13335;SDS011;6737;51.480;11.962;2023-04-06T03:09:10;15.47;;;10.80;;
13335;SDS011;6737;51.480;11.962;2023-04-06T03:11:36;14.67;;;10.70;;
13335;SDS011;6737;51.480;11.962;2023-04-06T03:14:02;15.83;;;10.37;;
13335;SDS011;6737;51.480;11.962;2023-04-06T03:16:27;17.50;;;11.30;;
13335;SDS011;6737;51.480;11.962;2023-04-06T03:18:53;15.87;;;10.77;;
13335;SDS011;6737;51.480;11.962;2023-04-06T03:21:19;18.07;;;11.90;;
13335;SDS011;6737;51.480;11.962;2023-04-06T03:23:45;15.07;;;10.73;;
13335;SDS011;6737;51.480;11.962;2023-04-06T03:26:11;17.47;;;11.17;;
13335;SDS011;6737;51.480;11.962;2023-04-06T03:28:37;14.37;;;10.47;;
13335;SDS011;6737;51.480;11.962;2023-04-06T03:31:02;15.73;;;10.63;;
13335;SDS011;6737;51.480;11.962;2023-04-06T03:33:28;13.97;;;9.83;;
13335;SDS011;6737;51.480;11.962;2023-04-06T03:35:54;14.20;;;10.87;;
13335;SDS011;6737;51.480;11.962;2023-04-06T03:38:20;14.53;;;10.50;;
13335;SDS011;6737;51.480;11.962;2023-04-06T03:40:46;16.43;;;10.00;;
13335;SDS011;6737;51.480;11.962;2023-04-06T03:43:12;13.17;;;10.07;;
13335;SDS011;6737;51.480;11.962;2023-04-06T03:45:37;13.37;;;9.80;;
13335;SDS011;6737;51.480;11.962;2023-04-06T03:48:04;13.23;;;10.17;;
13335;SDS011;6737;51.480;11.962;2023-04-06T03:50:30;14.43;;;10.13;;
13335;SDS011;6737;51.480;11.962;2023-04-06T03:52:56;13.90;;;10.03;;
13335;SDS011;6737;51.480;11.962;2023-04-06T03:55:22;14.50;;;9.87;;
13335;SDS011;6737;51.480;11.962;2023-04-06T03:57:48;13.40;;;10.07;;
13335;SDS011;6737;51.480;11.962;2023-04-06T04:00:14;15.20;;;10.10;;
13335;SDS011;6737;51.480;11.962;2023-04-06T04:02:40;13.07;;;9.80;;
13335;SDS011;6737;51.480;11.962;2023-04-06T04:05:06;16.33;;;11.10;;
13335;SDS011;6737;51.480;11.962;2023-04-06T04:07:32;12.87;;;10.10;;
13335;SDS011;6737;51.480;11.962;2023-04-06T04:09:57;16.27;;;11.07;;
13335;SDS011;6737;51.480;11.962;2023-04-06T04:12:23;15.30;;;11.07;;
13335;SDS011;6737;51.480;11.962;2023-04-06T04:14:49;14.97;;;10.80;;
13335;SDS011;6737;51.480;11.962;2023-04-06T04:17:15;14.03;;;10.73;;
13335;SDS011;6737;51.480;11.962;2023-04-06T04:19:41;13.90;;;10.47;;
13335;SDS011;6737;51.480;11.962;2023-04-06T04:22:08;15.60;;;10.83;;
13335;SDS011;6737;51.480;11.962;2023-04-06T04:24:33;14.53;;;10.50;;
13335;SDS011;6737;51.480;11.962;2023-04-06T04:27:00;12.53;;;9.77;;
13335;SDS011;6737;51.480;11.962;2023-04-06T04:29:29;15.70;;;10.00;;
13335;SDS011;6737;51.480;11.962;2023-04-06T04:31:55;15.83;;;10.30;;
13335;SDS011;6737;51.480;11.962;2023-04-06T04:34:21;17.23;;;10.60;;
13335;SDS011;6737;51.480;11.962;2023-04-06T04:36:50;14.73;;;10.73;;
13335;SDS011;6737;51.480;11.962;2023-04-06T04:39:16;17.13;;;10.50;;
13335;SDS011;6737;51.480;11.962;2023-04-06T04:41:42;15.17;;;10.63;;
13335;SDS011;6737;51.480;11.962;2023-04-06T04:44:08;15.40;;;11.40;;
13335;SDS011;6737;51.480;11.962;2023-04-06T04:46:34;17.97;;;10.93;;
13335;SDS011;6737;51.480;11.962;2023-04-06T04:49:00;14.47;;;11.30;;
13335;SDS011;6737;51.480;11.962;2023-04-06T04:51:25;14.73;;;11.27;;
13335;SDS011;6737;51.480;11.962;2023-04-06T04:53:51;16.73;;;11.53;;
13335;SDS011;6737;51.480;11.962;2023-04-06T04:56:17;15.97;;;11.20;;
13335;SDS011;6737;51.480;11.962;2023-04-06T04:58:43;13.93;;;10.70;;
13335;SDS011;6737;51.480;11.962;2023-04-06T05:01:09;14.67;;;10.40;;
13335;SDS011;6737;51.480;11.962;2023-04-06T05:03:36;13.57;;;10.43;;
13335;SDS011;6737;51.480;11.962;2023-04-06T05:06:04;15.67;;;11.53;;
13335;SDS011;6737;51.480;11.962;2023-04-06T05:08:30;13.83;;;11.27;;
13335;SDS011;6737;51.480;11.962;2023-04-06T05:10:56;14.30;;;11.33;;
13335;SDS011;6737;51.480;11.962;2023-04-06T05:13:22;15.87;;;12.00;;
13335;SDS011;6737;51.480;11.962;2023-04-06T05:15:48;16.73;;;12.40;;
13335;SDS011;6737;51.480;11.962;2023-04-06T05:18:14;16.37;;;12.20;;
13335;SDS011;6737;51.480;11.962;2023-04-06T05:20:40;16.53;;;12.17;;
13335;SDS011;6737;51.480;11.962;2023-04-06T05:23:07;16.40;;;13.00;;
13335;SDS011;6737;51.480;11.962;2023-04-06T05:25:33;20.37;;;14.17;;
13335;SDS011;6737;51.480;11.962;2023-04-06T05:27:59;18.13;;;13.40;;
13335;SDS011;6737;51.480;11.962;2023-04-06T05:30:25;18.67;;;13.73;;
13335;SDS011;6737;51.480;11.962;2023-04-06T05:32:51;17.73;;;14.07;;
13335;SDS011;6737;51.480;11.962;2023-04-06T05:35:17;21.10;;;15.13;;
13335;SDS011;6737;51.480;11.962;2023-04-06T05:37:43;21.20;;;15.63;;
13335;SDS011;6737;51.480;11.962;2023-04-06T05:40:09;20.33;;;15.70;;
13335;SDS011;6737;51.480;11.962;2023-04-06T05:42:38;20.17;;;15.70;;
13335;SDS011;6737;51.480;11.962;2023-04-06T05:45:08;20.50;;;15.40;;
13335;SDS011;6737;51.480;11.962;2023-04-06T05:47:35;21.13;;;15.50;;
13335;SDS011;6737;51.480;11.962;2023-04-06T05:50:02;18.00;;;15.20;;
13335;SDS011;6737;51.480;11.962;2023-04-06T05:52:28;22.67;;;15.63;;
13335;SDS011;6737;51.480;11.962;2023-04-06T05:54:54;22.10;;;15.53;;
13335;SDS011;6737;51.480;11.962;2023-04-06T05:57:20;21.87;;;15.70;;
13335;SDS011;6737;51.480;11.962;2023-04-06T05:59:45;19.60;;;15.67;;
13335;SDS011;6737;51.480;11.962;2023-04-06T06:02:11;22.63;;;15.80;;
13335;SDS011;6737;51.480;11.962;2023-04-06T06:04:37;20.77;;;15.80;;
13335;SDS011;6737;51.480;11.962;2023-04-06T06:07:03;20.50;;;14.63;;
13335;SDS011;6737;51.480;11.962;2023-04-06T06:09:30;19.67;;;14.87;;
13335;SDS011;6737;51.480;11.962;2023-04-06T06:11:56;20.13;;;14.63;;
13335;SDS011;6737;51.480;11.962;2023-04-06T06:14:22;20.70;;;15.43;;
13335;SDS011;6737;51.480;11.962;2023-04-06T06:16:47;20.20;;;14.90;;
13335;SDS011;6737;51.480;11.962;2023-04-06T06:19:13;21.20;;;14.53;;
13335;SDS011;6737;51.480;11.962;2023-04-06T06:21:39;21.57;;;14.70;;
13335;SDS011;6737;51.480;11.962;2023-04-06T06:24:05;18.40;;;13.97;;
13335;SDS011;6737;51.480;11.962;2023-04-06T06:26:32;20.10;;;13.33;;
13335;SDS011;6737;51.480;11.962;2023-04-06T06:28:58;19.57;;;14.00;;
13335;SDS011;6737;51.480;11.962;2023-04-06T06:31:23;16.10;;;13.17;;
13335;SDS011;6737;51.480;11.962;2023-04-06T06:33:49;18.37;;;13.27;;
13335;SDS011;6737;51.480;11.962;2023-04-06T06:36:16;15.80;;;12.30;;
13335;SDS011;6737;51.480;11.962;2023-04-06T06:38:43;14.43;;;10.73;;
13335;SDS011;6737;51.480;11.962;2023-04-06T06:41:09;14.83;;;11.07;;
13335;SDS011;6737;51.480;11.962;2023-04-06T06:43:35;15.40;;;10.17;;
13335;SDS011;6737;51.480;11.962;2023-04-06T06:46:01;13.00;;;10.63;;
13335;SDS011;6737;51.480;11.962;2023-04-06T06:48:28;14.80;;;11.20;;
13335;SDS011;6737;51.480;11.962;2023-04-06T06:50:54;15.13;;;11.10;;
13335;SDS011;6737;51.480;11.962;2023-04-06T06:53:20;13.27;;;10.13;;
13335;SDS011;6737;51.480;11.962;2023-04-06T06:55:46;14.23;;;10.00;;
13335;SDS011;6737;51.480;11.962;2023-04-06T06:58:14;13.77;;;9.43;;
13335;SDS011;6737;51.480;11.962;2023-04-06T07:00:40;12.97;;;8.77;;
13335;SDS011;6737;51.480;11.962;2023-04-06T07:03:06;11.20;;;7.70;;
13335;SDS011;6737;51.480;11.962;2023-04-06T07:05:31;12.70;;;7.73;;
13335;SDS011;6737;51.480;11.962;2023-04-06T07:07:57;10.03;;;7.57;;
13335;SDS011;6737;51.480;11.962;2023-04-06T07:10:23;10.37;;;6.93;;
13335;SDS011;6737;51.480;11.962;2023-04-06T07:12:49;8.57;;;7.13;;
13335;SDS011;6737;51.480;11.962;2023-04-06T07:15:16;7.90;;;6.17;;
13335;SDS011;6737;51.480;11.962;2023-04-06T07:17:42;8.83;;;6.50;;
13335;SDS011;6737;51.480;11.962;2023-04-06T07:20:10;8.37;;;5.63;;
13335;SDS011;6737;51.480;11.962;2023-04-06T07:22:37;10.50;;;6.60;;
13335;SDS011;6737;51.480;11.962;2023-04-06T07:25:07;10.63;;;5.67;;
13335;SDS011;6737;51.480;11.962;2023-04-06T07:27:33;12.27;;;6.43;;
13335;SDS011;6737;51.480;11.962;2023-04-06T07:29:59;9.27;;;6.60;;
13335;SDS011;6737;51.480;11.962;2023-04-06T07:32:25;9.57;;;6.17;;
13335;SDS011;6737;51.480;11.962;2023-04-06T07:34:51;7.43;;;5.53;;
13335;SDS011;6737;51.480;11.962;2023-04-06T07:37:17;9.10;;;6.10;;
13335;SDS011;6737;51.480;11.962;2023-04-06T07:39:43;11.67;;;5.93;;
13335;SDS011;6737;51.480;11.962;2023-04-06T07:42:08;11.20;;;5.93;;
13335;SDS011;6737;51.480;11.962;2023-04-06T07:44:35;6.70;;;5.20;;
13335;SDS011;6737;51.480;11.962;2023-04-06T07:47:01;8.30;;;5.90;;
13335;SDS011;6737;51.480;11.962;2023-04-06T07:49:27;8.83;;;5.97;;
13335;SDS011;6737;51.480;11.962;2023-04-06T07:51:53;9.53;;;5.60;;
13335;SDS011;6737;51.480;11.962;2023-04-06T07:54:19;7.77;;;6.03;;
13335;SDS011;6737;51.480;11.962;2023-04-06T07:56:45;8.63;;;6.00;;
13335;SDS011;6737;51.480;11.962;2023-04-06T07:59:11;13.17;;;5.67;;
13335;SDS011;6737;51.480;11.962;2023-04-06T08:01:38;9.83;;;5.83;;
13335;SDS011;6737;51.480;11.962;2023-04-06T08:04:04;10.40;;;5.47;;
13335;SDS011;6737;51.480;11.962;2023-04-06T08:06:30;8.57;;;4.90;;
13335;SDS011;6737;51.480;11.962;2023-04-06T08:08:56;8.73;;;5.20;;
13335;SDS011;6737;51.480;11.962;2023-04-06T08:11:22;10.00;;;5.33;;
13335;SDS011;6737;51.480;11.962;2023-04-06T08:13:48;7.67;;;4.90;;
13335;SDS011;6737;51.480;11.962;2023-04-06T08:16:13;6.93;;;5.13;;
13335;SDS011;6737;51.480;11.962;2023-04-06T08:18:40;8.80;;;5.33;;
13335;SDS011;6737;51.480;11.962;2023-04-06T08:21:06;6.83;;;5.20;;
13335;SDS011;6737;51.480;11.962;2023-04-06T08:23:31;7.07;;;5.17;;
13335;SDS011;6737;51.480;11.962;2023-04-06T08:25:57;6.77;;;5.00;;
13335;SDS011;6737;51.480;11.962;2023-04-06T08:28:23;9.87;;;5.83;;
13335;SDS011;6737;51.480;11.962;2023-04-06T08:30:49;7.33;;;5.30;;
13335;SDS011;6737;51.480;11.962;2023-04-06T08:33:15;9.20;;;5.70;;
13335;SDS011;6737;51.480;11.962;2023-04-06T08:35:41;8.83;;;5.77;;
13335;SDS011;6737;51.480;11.962;2023-04-06T08:38:07;8.90;;;6.00;;
13335;SDS011;6737;51.480;11.962;2023-04-06T08:40:36;7.00;;;4.70;;
13335;SDS011;6737;51.480;11.962;2023-04-06T08:43:03;9.40;;;4.80;;
13335;SDS011;6737;51.480;11.962;2023-04-06T08:45:33;7.67;;;5.43;;
13335;SDS011;6737;51.480;11.962;2023-04-06T08:47:59;8.33;;;5.43;;
13335;SDS011;6737;51.480;11.962;2023-04-06T08:50:28;7.33;;;4.90;;
13335;SDS011;6737;51.480;11.962;2023-04-06T08:52:55;6.37;;;4.90;;
13335;SDS011;6737;51.480;11.962;2023-04-06T08:55:22;7.63;;;5.03;;
13335;SDS011;6737;51.480;11.962;2023-04-06T08:57:48;6.97;;;4.97;;
13335;SDS011;6737;51.480;11.962;2023-04-06T09:00:14;6.97;;;4.90;;
13335;SDS011;6737;51.480;11.962;2023-04-06T09:02:43;8.47;;;5.00;;
13335;SDS011;6737;51.480;11.962;2023-04-06T09:05:12;7.80;;;5.00;;
13335;SDS011;6737;51.480;11.962;2023-04-06T09:07:38;7.23;;;5.17;;
13335;SDS011;6737;51.480;11.962;2023-04-06T09:10:05;8.10;;;4.90;;
13335;SDS011;6737;51.480;11.962;2023-04-06T09:12:32;6.57;;;4.97;;
13335;SDS011;6737;51.480;11.962;2023-04-06T09:14:58;7.40;;;4.90;;
13335;SDS011;6737;51.480;11.962;2023-04-06T09:17:28;6.40;;;4.73;;
13335;SDS011;6737;51.480;11.962;2023-04-06T09:19:58;8.97;;;5.33;;
13335;SDS011;6737;51.480;11.962;2023-04-06T09:22:37;6.80;;;4.80;;
13335;SDS011;6737;51.480;11.962;2023-04-06T09:25:04;8.40;;;5.00;;
13335;SDS011;6737;51.480;11.962;2023-04-06T09:27:32;6.83;;;5.00;;
13335;SDS011;6737;51.480;11.962;2023-04-06T09:30:11;6.60;;;4.63;;
13335;SDS011;6737;51.480;11.962;2023-04-06T09:32:48;7.60;;;5.37;;
13335;SDS011;6737;51.480;11.962;2023-04-06T09:35:15;9.90;;;5.60;;
13335;SDS011;6737;51.480;11.962;2023-04-06T09:37:42;8.80;;;5.33;;
13335;SDS011;6737;51.480;11.962;2023-04-06T09:40:08;9.87;;;5.83;;
13335;SDS011;6737;51.480;11.962;2023-04-06T09:42:35;8.43;;;5.10;;
13335;SDS011;6737;51.480;11.962;2023-04-06T09:45:02;9.20;;;5.43;;
13335;SDS011;6737;51.480;11.962;2023-04-06T09:47:28;7.13;;;5.23;;
13335;SDS011;6737;51.480;11.962;2023-04-06T09:49:58;8.73;;;5.33;;
13335;SDS011;6737;51.480;11.962;2023-04-06T09:52:58;8.67;;;5.40;;
13335;SDS011;6737;51.480;11.962;2023-04-06T09:55:25;7.77;;;5.30;;
13335;SDS011;6737;51.480;11.962;2023-04-06T09:58:04;8.50;;;5.47;;
13335;SDS011;6737;51.480;11.962;2023-04-06T10:00:44;8.53;;;4.77;;
13335;SDS011;6737;51.480;11.962;2023-04-06T10:03:21;7.90;;;5.17;;
13335;SDS011;6737;51.480;11.962;2023-04-06T10:06:16;7.73;;;5.07;;
13335;SDS011;6737;51.480;11.962;2023-04-06T10:08:47;9.00;;;5.03;;
13335;SDS011;6737;51.480;11.962;2023-04-06T10:11:14;8.77;;;4.80;;
13335;SDS011;6737;51.480;11.962;2023-04-06T10:13:41;8.53;;;5.17;;
13335;SDS011;6737;51.480;11.962;2023-04-06T10:16:08;8.37;;;5.83;;
13335;SDS011;6737;51.480;11.962;2023-04-06T10:18:34;7.40;;;5.03;;
13335;SDS011;6737;51.480;11.962;2023-04-06T10:21:01;6.67;;;5.07;;
13335;SDS011;6737;51.480;11.962;2023-04-06T10:23:43;8.50;;;4.97;;
13335;SDS011;6737;51.480;11.962;2023-04-06T10:26:39;8.50;;;5.17;;
13335;SDS011;6737;51.480;11.962;2023-04-06T10:29:05;7.73;;;4.80;;
13335;SDS011;6737;51.480;11.962;2023-04-06T10:31:31;6.97;;;4.60;;
13335;SDS011;6737;51.480;11.962;2023-04-06T10:33:58;8.10;;;4.03;;
13335;SDS011;6737;51.480;11.962;2023-04-06T10:36:28;5.40;;;4.00;;
13335;SDS011;6737;51.480;11.962;2023-04-06T10:38:59;7.77;;;4.17;;
13335;SDS011;6737;51.480;11.962;2023-04-06T10:43:59;5.83;;;4.20;;
13335;SDS011;6737;51.480;11.962;2023-04-06T10:46:27;5.87;;;3.70;;
13335;SDS011;6737;51.480;11.962;2023-04-06T10:48:56;5.57;;;4.17;;
13335;SDS011;6737;51.480;11.962;2023-04-06T10:51:26;7.30;;;4.27;;
13335;SDS011;6737;51.480;11.962;2023-04-06T10:53:54;7.90;;;3.93;;
13335;SDS011;6737;51.480;11.962;2023-04-06T10:56:23;6.80;;;4.00;;
13335;SDS011;6737;51.480;11.962;2023-04-06T10:58:52;5.10;;;3.70;;
13335;SDS011;6737;51.480;11.962;2023-04-06T11:01:21;5.80;;;4.10;;
13335;SDS011;6737;51.480;11.962;2023-04-06T11:03:51;6.90;;;4.03;;
13335;SDS011;6737;51.480;11.962;2023-04-06T11:06:25;4.87;;;3.70;;
13335;SDS011;6737;51.480;11.962;2023-04-06T11:08:54;8.57;;;4.03;;
13335;SDS011;6737;51.480;11.962;2023-04-06T11:11:21;5.13;;;3.93;;
13335;SDS011;6737;51.480;11.962;2023-04-06T11:13:49;5.40;;;3.90;;
13335;SDS011;6737;51.480;11.962;2023-04-06T11:16:16;6.30;;;4.30;;
13335;SDS011;6737;51.480;11.962;2023-04-06T11:18:50;6.40;;;3.83;;
13335;SDS011;6737;51.480;11.962;2023-04-06T11:21:39;4.97;;;3.90;;
13335;SDS011;6737;51.480;11.962;2023-04-06T11:26:41;6.13;;;4.40;;
13335;SDS011;6737;51.480;11.962;2023-04-06T11:29:09;5.63;;;4.13;;
13335;SDS011;6737;51.480;11.962;2023-04-06T11:31:42;4.70;;;4.03;;
13335;SDS011;6737;51.480;11.962;2023-04-06T11:34:17;9.57;;;3.87;;
13335;SDS011;6737;51.480;11.962;2023-04-06T11:36:47;8.33;;;4.07;;
13335;SDS011;6737;51.480;11.962;2023-04-06T11:39:21;5.73;;;3.63;;
13335;SDS011;6737;51.480;11.962;2023-04-06T11:41:51;7.47;;;3.20;;
13335;SDS011;6737;51.480;11.962;2023-04-06T11:44:28;5.20;;;3.40;;
13335;SDS011;6737;51.480;11.962;2023-04-06T11:46:58;5.57;;;3.67;;
13335;SDS011;6737;51.480;11.962;2023-04-06T11:49:27;5.03;;;3.50;;
13335;SDS011;6737;51.480;11.962;2023-04-06T11:51:54;5.30;;;3.50;;
13335;SDS011;6737;51.480;11.962;2023-04-06T11:54:30;5.13;;;3.70;;
13335;SDS011;6737;51.480;11.962;2023-04-06T11:57:03;6.07;;;3.57;;
13335;SDS011;6737;51.480;11.962;2023-04-06T11:59:30;9.30;;;3.47;;
13335;SDS011;6737;51.480;11.962;2023-04-06T12:01:57;6.30;;;3.30;;
13335;SDS011;6737;51.480;11.962;2023-04-06T12:04:23;5.03;;;3.43;;
13335;SDS011;6737;51.480;11.962;2023-04-06T12:06:49;7.07;;;3.40;;
13335;SDS011;6737;51.480;11.962;2023-04-06T12:09:18;5.10;;;3.60;;
13335;SDS011;6737;51.480;11.962;2023-04-06T12:11:44;4.57;;;3.30;;
13335;SDS011;6737;51.480;11.962;2023-04-06T12:14:11;4.13;;;3.20;;
13335;SDS011;6737;51.480;11.962;2023-04-06T12:16:37;5.63;;;3.90;;
13335;SDS011;6737;51.480;11.962;2023-04-06T12:19:03;4.90;;;3.70;;
13335;SDS011;6737;51.480;11.962;2023-04-06T12:21:29;6.07;;;3.90;;
13335;SDS011;6737;51.480;11.962;2023-04-06T12:23:59;4.93;;;3.80;;
13335;SDS011;6737;51.480;11.962;2023-04-06T12:26:25;5.23;;;3.53;;
13335;SDS011;6737;51.480;11.962;2023-04-06T12:28:52;4.70;;;3.50;;
13335;SDS011;6737;51.480;11.962;2023-04-06T12:31:18;4.83;;;3.53;;
13335;SDS011;6737;51.480;11.962;2023-04-06T12:33:49;5.00;;;3.67;;
13335;SDS011;6737;51.480;11.962;2023-04-06T12:36:18;4.50;;;3.53;;
13335;SDS011;6737;51.480;11.962;2023-04-06T12:38:46;5.43;;;3.63;;
13335;SDS011;6737;51.480;11.962;2023-04-06T12:41:13;5.83;;;3.67;;
13335;SDS011;6737;51.480;11.962;2023-04-06T12:43:40;4.87;;;3.83;;
13335;SDS011;6737;51.480;11.962;2023-04-06T12:46:06;4.67;;;3.77;;
13335;SDS011;6737;51.480;11.962;2023-04-06T12:48:33;5.63;;;3.97;;
13335;SDS011;6737;51.480;11.962;2023-04-06T12:50:59;4.70;;;3.80;;
13335;SDS011;6737;51.480;11.962;2023-04-06T12:53:27;5.90;;;3.67;;
13335;SDS011;6737;51.480;11.962;2023-04-06T12:55:53;4.77;;;3.60;;
13335;SDS011;6737;51.480;11.962;2023-04-06T12:58:19;6.47;;;3.87;;
13335;SDS011;6737;51.480;11.962;2023-04-06T13:00:50;5.67;;;3.80;;
13335;SDS011;6737;51.480;11.962;2023-04-06T13:03:18;10.17;;;4.00;;
13335;SDS011;6737;51.480;11.962;2023-04-06T13:05:46;7.27;;;3.50;;
13335;SDS011;6737;51.480;11.962;2023-04-06T13:08:13;5.60;;;3.20;;
13335;SDS011;6737;51.480;11.962;2023-04-06T13:10:43;6.33;;;3.40;;
13335;SDS011;6737;51.480;11.962;2023-04-06T13:13:09;4.33;;;3.70;;
13335;SDS011;6737;51.480;11.962;2023-04-06T13:15:35;4.00;;;3.60;;
13335;SDS011;6737;51.480;11.962;2023-04-06T13:18:02;6.10;;;3.60;;
13335;SDS011;6737;51.480;11.962;2023-04-06T13:20:28;4.87;;;3.60;;
13335;SDS011;6737;51.480;11.962;2023-04-06T13:22:54;6.23;;;3.80;;
13335;SDS011;6737;51.480;11.962;2023-04-06T13:25:20;4.83;;;3.90;;
13335;SDS011;6737;51.480;11.962;2023-04-06T13:27:46;3.97;;;3.07;;
13335;SDS011;6737;51.480;11.962;2023-04-06T13:30:13;4.57;;;3.43;;
13335;SDS011;6737;51.480;11.962;2023-04-06T13:32:40;5.20;;;3.50;;
13335;SDS011;6737;51.480;11.962;2023-04-06T13:35:06;4.93;;;3.20;;
13335;SDS011;6737;51.480;11.962;2023-04-06T13:37:32;5.80;;;3.80;;
13335;SDS011;6737;51.480;11.962;2023-04-06T13:39:59;6.27;;;3.93;;
13335;SDS011;6737;51.480;11.962;2023-04-06T13:42:25;4.40;;;3.33;;
13335;SDS011;6737;51.480;11.962;2023-04-06T13:44:52;4.57;;;3.50;;
13335;SDS011;6737;51.480;11.962;2023-04-06T13:47:18;5.03;;;3.37;;
13335;SDS011;6737;51.480;11.962;2023-04-06T13:49:46;5.03;;;3.90;;
13335;SDS011;6737;51.480;11.962;2023-04-06T13:52:12;5.90;;;3.60;;
13335;SDS011;6737;51.480;11.962;2023-04-06T13:54:38;5.03;;;3.90;;
13335;SDS011;6737;51.480;11.962;2023-04-06T13:57:04;6.43;;;3.77;;
13335;SDS011;6737;51.480;11.962;2023-04-06T13:59:33;5.83;;;3.77;;
13335;SDS011;6737;51.480;11.962;2023-04-06T14:01:59;4.10;;;3.43;;
13335;SDS011;6737;51.480;11.962;2023-04-06T14:04:26;6.13;;;3.60;;
13335;SDS011;6737;51.480;11.962;2023-04-06T14:06:52;4.93;;;3.60;;
13335;SDS011;6737;51.480;11.962;2023-04-06T14:09:17;4.23;;;3.20;;
13335;SDS011;6737;51.480;11.962;2023-04-06T14:11:43;4.47;;;3.47;;
13335;SDS011;6737;51.480;11.962;2023-04-06T14:14:09;4.00;;;3.30;;
13335;SDS011;6737;51.480;11.962;2023-04-06T14:16:35;5.00;;;3.43;;
13335;SDS011;6737;51.480;11.962;2023-04-06T14:19:01;6.67;;;3.80;;
13335;SDS011;6737;51.480;11.962;2023-04-06T14:21:27;5.73;;;3.77;;
13335;SDS011;6737;51.480;11.962;2023-04-06T14:23:53;4.40;;;3.40;;
13335;SDS011;6737;51.480;11.962;2023-04-06T14:26:20;4.90;;;3.60;;
13335;SDS011;6737;51.480;11.962;2023-04-06T14:28:46;4.93;;;3.70;;
13335;SDS011;6737;51.480;11.962;2023-04-06T14:31:13;4.83;;;3.40;;
13335;SDS011;6737;51.480;11.962;2023-04-06T14:33:40;6.67;;;3.67;;
13335;SDS011;6737;51.480;11.962;2023-04-06T14:36:07;5.00;;;3.20;;
13335;SDS011;6737;51.480;11.962;2023-04-06T14:38:33;8.73;;;4.07;;
13335;SDS011;6737;51.480;11.962;2023-04-06T14:40:59;4.77;;;3.50;;